MMTP

Details ICAO MMTP (TAP)
Name TAPACHULA INTL
Region Mexico
Timezone America/Mexico_City (UTC-6.0)
Plans Departing 16
Arriving 15
Stats Elevation 97 ft / 30 m (AMSL)
Location 14.794337° -92.370024°
Runways 1
Magnetic Variation 1.983° E
Sunrise 2017-12-12 12:26:52 UTC / 2017-12-12 06:26:52 Local
Sunset 2017-12-12 23:42:39 UTC / 2017-12-12 17:42:39 Local
Advertisement - Login to hide

Runways

ID Width Length Bearing (true) Bearing (mag) Surface Threshold Offset Overrun Length
05 148 ft / 45 m 6,577 ft / 2,005 m 55.38° 53.40° Asphalt 0 ft / 0 m 198 ft / 60 m
23 148 ft / 45 m 6,577 ft / 2,005 m 235.38° 233.40° Asphalt 0 ft / 0 m 198 ft / 60 m

Map

Weather


0- 5 10 15 20 25 30 35+ Temperature / ° C

Clouds and Precipitation
Forecast for 2017-12-12 12:00 UTC. Updated 2 hours ago

Ground ~20,000 ft ~40,000 ft Winds

METAR

Not found

TAF

TAF MMTP 120522Z 1206/1312 00000KT P6SM SCT100 BKN250 FM121800 24010KT P6SM SCT020 BKN250 FM130100 00000KT P6SM SCT100 SCT250

Frequencies

Tower 118.20 MHz TWR
Warning: Do not use this data for real-world aviation or navigation. No guarantee of current accuracy is given.